Time;durP1;ratioP1;P1;durP2;ratioP2;P2;SDS_P1;SDS_P2;PMS_P1;PMS_P2;Temp;Humidity;BMP_temperature;BMP_pressure;BME280_temperature;BME280_humidity;BME280_pressure;Samples;Min_cycle;Max_cycle;Signal;HPM_P1;HPM_P2
2022/05/07 03:01:20;;;;;;;15.70;14.57;;;6.40;99.90;;;;;;5499094;23;20235;-76
2022/05/07 03:03:46;;;;;;;17.50;16.10;;;6.40;99.90;;;;;;4990986;28;20656;-76
2022/05/07 03:06:11;;;;;;;18.13;16.63;;;6.30;99.90;;;;;;4991842;28;20173;-76
2022/05/07 03:08:37;;;;;;;16.47;15.13;;;6.30;99.90;;;;;;4992135;28;20184;-76
2022/05/07 03:11:03;;;;;;;16.07;14.87;;;6.30;99.90;;;;;;4996091;28;20272;-75
2022/05/07 03:13:29;;;;;;;14.87;13.67;;;6.30;99.90;;;;;;5015163;28;20251;-75
2022/05/07 03:15:54;;;;;;;15.83;14.60;;;6.30;99.90;;;;;;5003934;23;20776;-77
2022/05/07 03:18:20;;;;;;;14.80;13.57;;;6.30;99.90;;;;;;4952423;29;20215;-77
2022/05/07 03:20:46;;;;;;;15.37;14.17;;;6.30;99.90;;;;;;4953966;28;20182;-77
2022/05/07 03:23:13;;;;;;;15.83;14.27;;;6.30;99.90;;;;;;4954385;29;20640;-77
2022/05/07 03:25:38;;;;;;;13.90;12.83;;;6.30;99.90;;;;;;4947016;28;20261;-76
2022/05/07 03:28:04;;;;;;;12.47;11.27;;;6.20;99.90;;;;;;4935879;29;20614;-76
2022/05/07 03:30:30;;;;;;;11.90;10.93;;;6.20;99.90;;;;;;4935676;29;20218;-76
2022/05/07 03:32:56;;;;;;;14.57;13.40;;;6.10;99.90;;;;;;4936540;29;20674;-76
2022/05/07 03:35:21;;;;;;;15.70;14.40;;;6.10;99.90;;;;;;4941453;29;20206;-76
2022/05/07 03:37:47;;;;;;;15.67;14.47;;;6.10;99.90;;;;;;4944131;29;20195;-77
2022/05/07 03:40:13;;;;;;;16.60;15.13;;;6.00;99.90;;;;;;4939294;29;20182;-76
2022/05/07 03:42:39;;;;;;;19.43;17.93;;;6.10;99.90;;;;;;4937261;29;20209;-76
2022/05/07 03:45:05;;;;;;;17.27;15.97;;;6.00;99.90;;;;;;4937435;29;20202;-77
2022/05/07 03:47:31;;;;;;;17.60;16.07;;;6.00;99.90;;;;;;4936819;29;20189;-76
2022/05/07 03:49:57;;;;;;;15.63;14.43;;;5.90;99.90;;;;;;4937314;29;20214;-76
2022/05/07 03:55:07;;;;;;;15.57;14.37;;;5.80;99.90;;;;;;4938175;29;20293;-77
2022/05/07 03:57:33;;;;;;;13.57;12.57;;;5.80;99.90;;;;;;4938086;29;20254;-77
2022/05/07 04:00:00;;;;;;;15.17;13.63;;;5.70;99.90;;;;;;4937812;29;20225;-76
2022/05/07 04:02:26;;;;;;;16.33;15.10;;;5.80;99.90;;;;;;4938135;29;20654;-76
2022/05/07 04:04:51;;;;;;;14.00;12.63;;;5.80;99.90;;;;;;4940625;29;20178;-76
2022/05/07 04:07:17;;;;;;;12.67;11.43;;;5.80;99.90;;;;;;4939629;29;20205;-76
2022/05/07 04:09:43;;;;;;;13.80;12.40;;;5.90;99.90;;;;;;4937055;29;20226;-77
2022/05/07 04:12:11;;;;;;;13.03;11.80;;;5.80;99.90;;;;;;4936626;29;20265;-76
2022/05/07 04:14:36;;;;;;;13.23;12.13;;;5.80;99.90;;;;;;4938098;28;20182;-76
2022/05/07 04:17:02;;;;;;;13.50;12.20;;;5.90;99.90;;;;;;4936625;29;20654;-75
2022/05/07 04:19:28;;;;;;;13.70;12.40;;;5.90;99.90;;;;;;4935509;29;20210;-73
2022/05/07 04:21:54;;;;;;;12.57;11.40;;;5.90;99.90;;;;;;4928772;29;20186;-73
2022/05/07 04:24:19;;;;;;;12.53;11.27;;;5.90;99.90;;;;;;4936787;29;20191;-73
2022/05/07 04:26:45;;;;;;;12.93;11.73;;;6.00;99.90;;;;;;4936017;28;20266;-72
2022/05/07 04:29:16;;;;;;;11.30;10.40;;;6.10;99.90;;;;;;4936038;28;20215;-73
2022/05/07 04:31:42;;;;;;;13.87;12.63;;;6.20;99.90;;;;;;4934997;29;20178;-68
2022/05/07 04:34:08;;;;;;;25.03;23.13;;;6.10;99.90;;;;;;4920993;29;20290;-68
2022/05/07 04:36:34;;;;;;;23.87;22.17;;;6.20;99.90;;;;;;4942375;28;20288;-69
2022/05/07 04:39:00;;;;;;;23.27;21.53;;;6.30;99.90;;;;;;4935760;29;20269;-69
2022/05/07 04:41:26;;;;;;;29.07;26.83;;;6.50;99.90;;;;;;4934473;29;20194;-69
2022/05/07 04:43:51;;;;;;;38.07;35.27;;;6.70;99.90;;;;;;4933048;29;20277;-69
2022/05/07 04:46:17;;;;;;;42.93;40.43;;;6.70;99.90;;;;;;4920696;28;20559;-68
2022/05/07 04:48:45;;;;;;;41.37;38.80;;;6.90;99.90;;;;;;4914926;29;20667;-69
2022/05/07 04:51:11;;;;;;;51.30;48.40;;;7.00;99.90;;;;;;4927707;29;20552;-68
2022/05/07 04:53:36;;;;;;;16.57;15.43;;;7.10;99.90;;;;;;4935546;29;20237;-69
2022/05/07 04:56:02;;;;;;;22.53;20.80;;;7.20;99.90;;;;;;4935668;29;20250;-69
2022/05/07 04:58:28;;;;;;;17.43;15.57;;;7.50;99.90;;;;;;4935274;29;20175;-73
2022/05/07 05:00:54;;;;;;;15.90;11.43;;;7.60;99.90;;;;;;4934473;29;20261;-73
2022/05/07 05:03:19;;;;;;;14.10;13.00;;;7.80;99.90;;;;;;4936005;29;20209;-73
2022/05/07 05:05:45;;;;;;;13.30;12.20;;;8.00;99.90;;;;;;4934331;29;20267;-72
2022/05/07 05:08:11;;;;;;;24.60;22.80;;;8.20;99.90;;;;;;4935104;29;20232;-72
2022/05/07 05:10:37;;;;;;;27.47;25.63;;;8.50;99.90;;;;;;4935037;29;20706;-72
2022/05/07 05:13:03;;;;;;;19.00;17.53;;;8.70;99.90;;;;;;4933585;29;20208;-73
2022/05/07 05:15:28;;;;;;;15.63;14.33;;;8.80;99.90;;;;;;4924939;29;20939;-73
2022/05/07 05:17:54;;;;;;;16.13;15.13;;;8.90;99.90;;;;;;4935011;29;20541;-73
2022/05/07 05:20:20;;;;;;;16.07;14.57;;;9.10;99.90;;;;;;4934646;29;20182;-73
2022/05/07 05:22:50;;;;;;;15.23;14.00;;;9.20;99.90;;;;;;4933900;29;20182;-73
2022/05/07 05:25:19;;;;;;;16.43;14.93;;;9.30;99.90;;;;;;4934912;28;20257;-76
2022/05/07 05:27:45;;;;;;;13.57;12.47;;;9.30;99.90;;;;;;4933624;29;20191;-74
2022/05/07 05:30:12;;;;;;;24.90;23.10;;;9.50;99.90;;;;;;4934745;28;20629;-74
2022/05/07 05:32:38;;;;;;;29.13;27.30;;;9.50;99.90;;;;;;4933708;29;20221;-74
2022/05/07 05:35:04;;;;;;;32.90;30.63;;;9.40;99.90;;;;;;4935040;29;20229;-74
2022/05/07 05:37:32;;;;;;;29.77;28.00;;;9.60;99.90;;;;;;4934377;29;20197;-74
2022/05/07 05:39:59;;;;;;;21.03;19.63;;;9.70;99.90;;;;;;4933766;29;20178;-74
2022/05/07 05:42:24;;;;;;;17.63;16.43;;;10.10;99.90;;;;;;4933690;29;20650;-74
2022/05/07 05:44:50;;;;;;;14.30;13.20;;;10.40;99.90;;;;;;4935172;29;20242;-73
2022/05/07 05:47:16;;;;;;;21.27;19.90;;;11.10;99.90;;;;;;4935242;29;20240;-71
2022/05/07 05:49:42;;;;;;;14.47;13.30;;;11.70;99.90;;;;;;4935319;28;20881;-75
2022/05/07 05:52:08;;;;;;;13.87;12.70;;;12.40;99.90;;;;;;4937291;29;20605;-75
2022/05/07 05:54:35;;;;;;;11.33;10.37;;;13.00;99.90;;;;;;4936967;28;20185;-75
2022/05/07 05:57:01;;;;;;;9.83;8.60;;;13.60;99.90;;;;;;4937220;29;20273;-74
2022/05/07 05:59:27;;;;;;;9.30;8.63;;;14.20;99.90;;;;;;4934063;29;20185;-74
2022/05/07 06:01:53;;;;;;;11.53;10.63;;;14.60;99.90;;;;;;4937835;29;20201;-74
2022/05/07 06:04:19;;;;;;;13.27;12.17;;;14.90;99.90;;;;;;4935333;28;20662;-75
2022/05/07 06:06:45;;;;;;;14.77;13.83;;;15.10;99.90;;;;;;4933109;29;20219;-72
2022/05/07 06:09:11;;;;;;;11.63;10.73;;;15.40;99.90;;;;;;4932930;29;20214;-73
2022/05/07 06:11:37;;;;;;;9.47;8.87;;;15.80;99.90;;;;;;4934280;29;20655;-73
2022/05/07 06:14:03;;;;;;;9.93;9.17;;;15.90;99.90;;;;;;4934092;29;20186;-74
2022/05/07 06:16:29;;;;;;;9.67;9.03;;;16.00;99.90;;;;;;4934232;29;20217;-73
2022/05/07 06:18:55;;;;;;;10.87;9.87;;;16.10;99.90;;;;;;4934056;29;20179;-73
2022/05/07 06:21:21;;;;;;;16.13;15.07;;;16.40;99.90;;;;;;4932803;29;20659;-72
2022/05/07 06:23:47;;;;;;;16.77;15.60;;;16.60;99.90;;;;;;4932618;29;20194;-72
2022/05/07 06:28:59;;;;;;;21.17;19.83;;;16.40;99.90;;;;;;4933702;29;20706;-75
2022/05/07 06:31:24;;;;;;;29.23;27.53;;;16.60;99.90;;;;;;4934813;29;20183;-75
2022/05/07 06:33:50;;;;;;;32.37;30.40;;;16.90;99.90;;;;;;4934229;29;20182;-75
2022/05/07 06:36:16;;;;;;;20.07;18.53;;;17.20;99.90;;;;;;4933020;29;20202;-75
2022/05/07 06:38:42;;;;;;;10.63;9.70;;;17.60;99.90;;;;;;4933930;29;20658;-74
2022/05/07 06:41:07;;;;;;;10.17;9.30;;;17.70;99.90;;;;;;4934001;29;20178;-76
2022/05/07 06:43:34;;;;;;;10.50;9.53;;;17.80;99.90;;;;;;4933533;29;20225;-77
2022/05/07 06:46:01;;;;;;;12.03;11.07;;;18.30;99.90;;;;;;4934254;29;20213;-75
2022/05/07 06:48:27;;;;;;;11.13;10.43;;;18.50;99.90;;;;;;4932885;29;20197;-73
2022/05/07 06:50:54;;;;;;;11.83;10.97;;;18.80;99.90;;;;;;4933574;28;20605;-73
2022/05/07 06:53:20;;;;;;;10.70;9.80;;;18.90;99.90;;;;;;4932843;29;20190;-75
2022/05/07 06:55:54;;;;;;;11.83;10.03;;;18.80;99.90;;;;;;4934106;29;20195;-73
2022/05/07 06:58:25;;;;;;;11.37;10.50;;;18.50;99.90;;;;;;4933457;28;20193;-72
2022/05/07 07:00:51;;;;;;;10.73;9.83;;;18.60;99.90;;;;;;4934144;29;20190;-72
2022/05/07 07:03:17;;;;;;;10.60;9.70;;;18.50;99.90;;;;;;4934118;29;20698;-73
2022/05/07 07:05:43;;;;;;;10.57;9.50;;;18.90;99.90;;;;;;4931917;29;20261;-73
2022/05/07 07:08:11;;;;;;;11.43;9.50;;;18.90;99.90;;;;;;4933410;29;20270;-72
2022/05/07 07:10:37;;;;;;;12.13;9.50;;;19.10;99.90;;;;;;4934030;29;20242;-73
2022/05/07 07:13:04;;;;;;;11.30;10.20;;;19.70;99.90;;;;;;4937535;29;20233;-78
2022/05/07 07:15:30;;;;;;;10.30;9.40;;;20.10;99.90;;;;;;4934731;29;20229;-77
2022/05/07 07:17:56;;;;;;;10.77;9.77;;;20.00;99.90;;;;;;4922157;29;20651;-78
2022/05/07 07:20:21;;;;;;;11.33;10.23;;;20.20;99.90;;;;;;4923457;29;20190;-77
2022/05/07 07:22:47;;;;;;;11.13;9.13;;;20.50;99.90;;;;;;4930513;29;20253;-77
2022/05/07 07:25:13;;;;;;;10.30;9.33;;;20.20;99.90;;;;;;4939545;29;20214;-77
2022/05/07 07:27:39;;;;;;;10.63;9.53;;;20.00;99.90;;;;;;4940934;29;20249;-76
2022/05/07 07:30:05;;;;;;;10.00;9.17;;;20.20;99.90;;;;;;4945292;29;20672;-77
2022/05/07 07:32:31;;;;;;;10.27;9.37;;;20.00;99.90;;;;;;4942990;29;20170;-77
2022/05/07 07:34:57;;;;;;;10.73;9.87;;;20.40;99.90;;;;;;4940314;29;20276;-77
2022/05/07 07:37:23;;;;;;;11.00;10.20;;;20.50;99.90;;;;;;4944433;29;20193;-78
2022/05/07 07:39:49;;;;;;;11.60;10.47;;;20.60;99.90;;;;;;4945194;29;20195;-77
2022/05/07 07:42:17;;;;;;;11.47;10.53;;;20.90;99.90;;;;;;4946062;29;20186;-78
2022/05/07 07:44:42;;;;;;;10.77;9.97;;;20.90;99.90;;;;;;4945251;29;20221;-77
2022/05/07 07:49:53;;;;;;;12.67;11.57;;;20.80;99.90;;;;;;4944677;29;20218;-78
2022/05/07 07:52:19;;;;;;;10.63;9.73;;;20.90;99.90;;;;;;4943361;29;20183;-78
2022/05/07 07:54:44;;;;;;;11.50;10.53;;;21.00;99.20;;;;;;4944244;29;20190;-78
2022/05/07 07:57:10;;;;;;;11.67;10.67;;;21.20;98.90;;;;;;4944413;29;20584;-77
2022/05/07 07:59:36;;;;;;;13.30;10.33;;;21.40;99.00;;;;;;4943417;29;20194;-77
2022/05/07 08:02:04;;;;;;;10.97;9.97;;;21.40;99.00;;;;;;4941004;29;20182;-79
2022/05/07 08:04:30;;;;;;;11.75;10.73;;;21.60;98.50;;;;;;4943131;29;20193;-76
2022/05/07 08:12:25;;;;;;;13.02;12.07;;;22.20;97.20;;;;;;4939417;29;20190;-77
2022/05/07 08:14:54;;;;;;;14.65;13.45;;;22.40;96.10;;;;;;4941443;29;20595;-78
2022/05/07 08:17:19;;;;;;;17.42;16.13;;;22.50;96.50;;;;;;4941601;29;20178;-77
2022/05/07 08:19:45;;;;;;;15.95;14.95;;;23.00;95.80;;;;;;4938111;29;20183;-77
2022/05/07 08:22:11;;;;;;;18.48;17.17;;;23.20;93.80;;;;;;4941735;29;20194;-77
2022/05/07 08:24:37;;;;;;;18.33;17.13;;;23.30;93.70;;;;;;4948971;28;20208;-77
2022/05/07 08:27:03;;;;;;;18.48;16.83;;;23.40;92.60;;;;;;4945398;29;20213;-77
2022/05/07 08:29:29;;;;;;;20.70;18.90;;;23.70;93.40;;;;;;4947457;29;20216;-77
2022/05/07 08:31:57;;;;;;;16.42;15.23;;;23.90;93.80;;;;;;4940935;29;20191;-76
2022/05/07 08:34:23;;;;;;;17.98;16.77;;;23.90;92.10;;;;;;4939899;29;20678;-75
2022/05/07 08:36:48;;;;;;;20.58;18.80;;;24.00;92.20;;;;;;4939603;29;20206;-77
2022/05/07 08:39:14;;;;;;;17.02;15.75;;;23.70;92.70;;;;;;4941660;29;20189;-77
2022/05/07 08:41:40;;;;;;;17.08;15.77;;;23.70;92.40;;;;;;4944343;29;20187;-76
2022/05/07 08:44:06;;;;;;;16.20;15.07;;;23.70;91.60;;;;;;4943629;29;20568;-77
2022/05/07 08:46:33;;;;;;;17.77;16.42;;;23.60;91.60;;;;;;4937875;29;20647;-77
2022/05/07 08:48:59;;;;;;;16.40;15.18;;;23.60;91.40;;;;;;4937698;29;20206;-77
2022/05/07 08:51:25;;;;;;;17.33;16.15;;;24.00;90.80;;;;;;4943949;29;20182;-76
2022/05/07 08:53:53;;;;;;;13.80;12.70;;;24.70;88.50;;;;;;4942961;29;20237;-77
2022/05/07 08:56:19;;;;;;;13.45;12.55;;;24.80;87.10;;;;;;4953436;29;20218;-77
2022/05/07 08:58:50;;;;;;;18.75;17.38;;;24.30;85.60;;;;;;4945004;29;20193;-77
2022/05/07 09:01:16;;;;;;;14.82;13.73;;;23.00;90.70;;;;;;4922237;29;20194;-77
2022/05/07 09:03:47;;;;;;;11.38;10.35;;;22.70;91.10;;;;;;4924688;29;20186;-76
2022/05/07 09:06:16;;;;;;;12.20;11.27;;;23.10;91.40;;;;;;4919811;29;20211;-77
2022/05/07 09:08:45;;;;;;;14.07;10.95;;;23.00;90.30;;;;;;4922486;29;20191;-76
2022/05/07 09:11:11;;;;;;;10.07;9.18;;;23.00;91.10;;;;;;4936428;29;20210;-76
2022/05/07 09:13:36;;;;;;;10.93;10.02;;;22.80;90.60;;;;;;4938909;29;20678;-77
2022/05/07 09:16:04;;;;;;;10.90;10.10;;;22.80;89.40;;;;;;4967302;23;20237;-75
2022/05/07 09:18:30;;;;;;;9.98;9.27;;;23.00;88.50;;;;;;4953904;28;20188;-74
2022/05/07 09:21:16;;;;;;;13.23;11.93;;;23.40;85.90;;;;;;4971195;28;20189;-75
2022/05/07 09:24:07;;;;;;;13.27;12.30;;;23.90;83.30;;;;;;4974645;28;20188;-75
2022/05/07 09:26:37;;;;;;;15.73;14.65;;;23.40;82.90;;;;;;4951759;28;20213;-75
2022/05/07 09:29:07;;;;;;;14.23;12.98;;;23.30;83.30;;;;;;4952877;28;20214;-75
2022/05/07 09:31:35;;;;;;;16.73;15.52;;;24.00;82.00;;;;;;4934344;29;20182;-76
2022/05/07 09:37:20;;;;;;;6.78;6.38;;;25.20;71.30;;;;;;4934952;29;20234;-76
2022/05/07 09:39:50;;;;;;;7.53;6.68;;;25.50;70.50;;;;;;4937722;29;20198;-76
2022/05/07 09:42:20;;;;;;;8.18;7.57;;;26.20;69.80;;;;;;4934106;29;20618;-75
2022/05/07 09:44:47;;;;;;;4.88;4.68;;;26.50;67.00;;;;;;4935273;29;20643;-75
2022/05/07 09:47:13;;;;;;;8.60;7.93;;;26.70;57.60;;;;;;4933727;29;20257;-75
2022/05/07 09:50:20;;;;;;;8.02;7.53;;;27.40;60.50;;;;;;4938396;29;20209;-75
2022/05/07 09:52:29;;;;;;;7.05;6.53;;;27.70;55.40;;;;;;4954141;29;20186;-75
2022/05/07 09:57:40;;;;;;;4.40;4.10;;;27.40;53.70;;;;;;4953619;29;20194;-75
2022/05/07 10:00:08;;;;;;;4.82;4.43;;;27.20;53.90;;;;;;4945312;29;20187;-74
2022/05/07 10:03:15;;;;;;;6.00;5.40;;;27.60;50.40;;;;;;4934952;29;20182;-75
2022/05/07 10:05:54;;;;;;;4.22;3.92;;;26.50;51.00;;;;;;4934888;28;20283;-75
2022/05/07 10:08:45;;;;;;;4.70;4.30;;;26.90;49.10;;;;;;4933428;29;20194;-77
2022/05/07 10:11:13;;;;;;;5.28;4.82;;;26.10;50.40;;;;;;4951378;29;20268;-77
2022/05/07 10:13:39;;;;;;;3.92;3.72;;;25.50;49.90;;;;;;4954044;29;20185;-74
2022/05/07 10:16:05;;;;;;;4.18;3.83;;;25.70;49.80;;;;;;4955191;28;20221;-75
2022/05/07 10:18:41;;;;;;;8.63;4.63;;;25.90;47.40;;;;;;4974173;29;20174;-74
2022/05/07 10:21:15;;;;;;;6.40;5.93;;;26.20;49.90;;;;;;4936653;29;20677;-75
2022/05/07 10:23:52;;;;;;;7.63;5.70;;;26.40;47.70;;;;;;4934840;29;20204;-75
2022/05/07 10:26:19;;;;;;;5.07;4.70;;;26.60;51.20;;;;;;4934641;29;20240;-76
2022/05/07 10:28:45;;;;;;;5.25;4.75;;;27.70;49.60;;;;;;4934575;29;20182;-76
2022/05/07 10:31:18;;;;;;;4.43;4.13;;;28.50;46.30;;;;;;4953577;29;20324;-75
2022/05/07 10:33:44;;;;;;;4.28;4.03;;;29.40;44.10;;;;;;4953618;29;20186;-75
2022/05/07 10:36:10;;;;;;;5.18;4.88;;;29.30;43.50;;;;;;4952540;28;20201;-76
2022/05/07 10:38:38;;;;;;;4.63;4.07;;;29.80;43.60;;;;;;4952736;29;20836;-75
2022/05/07 10:41:18;;;;;;;7.00;5.30;;;29.20;43.70;;;;;;4937388;29;20677;-76
2022/05/07 10:43:48;;;;;;;6.05;5.55;;;28.80;44.30;;;;;;4934055;29;20221;-76
2022/05/07 10:46:16;;;;;;;8.35;7.70;;;29.20;46.00;;;;;;4932781;29;20214;-77
2022/05/07 10:48:43;;;;;;;5.13;3.55;;;30.10;44.90;;;;;;4933396;29;20182;-75
2022/05/07 10:51:16;;;;;;;4.90;3.92;;;30.60;42.20;;;;;;4949316;29;20181;-75
2022/05/07 10:53:42;;;;;;;5.25;4.95;;;29.60;41.90;;;;;;4952094;29;20681;-77
2022/05/07 10:56:16;;;;;;;6.95;6.35;;;29.10;45.20;;;;;;4951869;28;20282;-77
2022/05/07 10:58:46;;;;;;;3.75;3.55;;;29.20;45.30;;;;;;4955145;29;20253;-79
2022/05/07 11:01:12;;;;;;;4.70;4.25;;;29.10;41.30;;;;;;4942667;29;20190;-78
2022/05/07 11:03:39;;;;;;;8.68;8.10;;;27.40;42.80;;;;;;4924219;29;20189;-78
2022/05/07 11:06:05;;;;;;;7.60;7.13;;;26.20;44.90;;;;;;4938958;29;20207;-80
2022/05/07 11:08:31;;;;;;;7.63;7.13;;;25.90;46.10;;;;;;4940538;29;20188;-79
2022/05/07 11:11:10;;;;;;;8.02;7.32;;;26.60;44.90;;;;;;4943406;29;20281;-79
2022/05/07 11:13:52;;;;;;;6.85;6.25;;;26.20;45.20;;;;;;4950004;29;20182;-79
2022/05/07 11:16:19;;;;;;;9.18;8.70;;;26.30;45.00;;;;;;4939836;29;20218;-79
2022/05/07 11:18:53;;;;;;;7.97;7.20;;;26.00;46.10;;;;;;4943003;29;20216;-77
2022/05/07 11:21:22;;;;;;;9.02;8.55;;;26.10;48.00;;;;;;4938659;29;20254;-80
2022/05/07 11:23:59;;;;;;;5.60;5.30;;;26.20;47.80;;;;;;4932613;29;20183;-79
2022/05/07 11:26:26;;;;;;;6.75;6.22;;;26.80;47.60;;;;;;4937311;29;20210;-79
2022/05/07 11:28:52;;;;;;;6.72;4.78;;;27.20;44.90;;;;;;4963437;29;20178;-80
2022/05/07 11:31:28;;;;;;;7.32;6.93;;;28.00;44.50;;;;;;4972864;29;20182;-80
2022/05/07 11:34:10;;;;;;;7.80;7.00;;;29.00;44.00;;;;;;4970259;29;20181;-79
2022/05/07 11:36:36;;;;;;;6.28;5.57;;;30.00;44.30;;;;;;4941142;29;20206;-77
2022/05/07 11:39:08;;;;;;;3.33;3.05;;;31.10;43.20;;;;;;4940985;29;20186;-78
2022/05/07 11:41:35;;;;;;;5.93;3.65;;;31.10;40.40;;;;;;4942198;29;20201;-77
2022/05/07 11:46:49;;;;;;;3.67;3.10;;;29.90;42.30;;;;;;4941639;29;20213;-78
2022/05/07 11:49:25;;;;;;;4.63;4.13;;;28.50;42.10;;;;;;4941706;28;20217;-74
2022/05/07 11:51:51;;;;;;;13.27;12.63;;;26.90;45.10;;;;;;4933259;29;20193;-73
2022/05/07 11:54:18;;;;;;;10.50;9.88;;;26.70;47.30;;;;;;4932583;29;20183;-73
2022/05/07 11:56:47;;;;;;;11.15;10.55;;;26.90;46.40;;;;;;4933767;29;20206;-73
2022/05/07 11:59:14;;;;;;;7.90;7.38;;;26.10;46.40;;;;;;4938093;29;20186;-73
2022/05/07 12:01:40;;;;;;;12.85;11.80;;;25.40;46.80;;;;;;4939180;29;20266;-73
2022/05/07 12:04:09;;;;;;;10.13;9.52;;;25.10;48.60;;;;;;4925401;29;20289;-73
2022/05/07 12:06:36;;;;;;;12.52;11.68;;;25.10;49.20;;;;;;4915318;29;20311;-73
2022/05/07 12:09:13;;;;;;;13.38;12.23;;;24.70;49.00;;;;;;4914406;29;20301;-73
2022/05/07 12:11:40;;;;;;;15.23;14.55;;;24.60;49.40;;;;;;4927051;29;20189;-77
2022/05/07 12:14:06;;;;;;;14.23;13.40;;;24.10;50.30;;;;;;4937461;28;20277;-75
2022/05/07 12:19:29;;;;;;;6.30;5.90;;;23.30;52.60;;;;;;4941015;29;20186;-75
2022/05/07 12:30:14;;;;;;;12.35;11.35;;;24.40;49.10;;;;;;4916118;29;20329;-76
2022/05/07 12:32:43;;;;;;;12.27;11.45;;;25.30;48.50;;;;;;4927992;29;20175;-76
2022/05/07 12:35:10;;;;;;;12.90;12.25;;;26.40;49.00;;;;;;4936505;28;20222;-76
2022/05/07 12:37:37;;;;;;;12.65;11.80;;;27.20;47.60;;;;;;4935079;29;20218;-76
2022/05/07 12:40:07;;;;;;;15.35;14.05;;;27.90;45.60;;;;;;4935303;29;20289;-76
2022/05/07 12:42:34;;;;;;;7.25;6.65;;;27.80;45.70;;;;;;4936393;28;20648;-76
2022/05/07 12:45:00;;;;;;;11.80;10.32;;;27.30;45.30;;;;;;4936264;29;20726;-76
2022/05/07 12:47:26;;;;;;;10.68;9.82;;;26.90;46.70;;;;;;4934591;29;20285;-76
2022/05/07 12:49:52;;;;;;;9.70;9.05;;;26.40;46.70;;;;;;4936517;29;20210;-75
2022/05/07 12:52:18;;;;;;;13.57;12.50;;;26.00;47.60;;;;;;4936055;28;20182;-76
2022/05/07 12:54:44;;;;;;;20.83;19.27;;;25.70;48.70;;;;;;4936459;29;20187;-75
2022/05/07 12:57:10;;;;;;;8.25;7.85;;;25.50;48.20;;;;;;4935665;29;20289;-76
2022/05/07 12:59:38;;;;;;;10.25;9.45;;;25.50;47.30;;;;;;4935902;29;20194;-76
2022/05/07 13:02:06;;;;;;;12.02;10.98;;;25.40;48.10;;;;;;4935149;29;20570;-75
2022/05/07 13:04:32;;;;;;;20.55;19.20;;;25.40;47.30;;;;;;4935490;29;20876;-77
2022/05/07 13:06:58;;;;;;;11.88;11.20;;;25.50;49.30;;;;;;4934620;29;20318;-76
2022/05/07 13:09:25;;;;;;;14.02;13.20;;;25.80;47.40;;;;;;4935773;29;20350;-76
2022/05/07 13:11:51;;;;;;;15.80;14.68;;;25.70;46.80;;;;;;4935323;29;20189;-76
2022/05/07 13:14:16;;;;;;;12.43;11.60;;;25.90;47.00;;;;;;4946235;29;20553;-76
2022/05/07 13:16:43;;;;;;;14.88;14.10;;;26.00;45.90;;;;;;4954584;28;20216;-75
2022/05/07 13:19:09;;;;;;;13.00;12.27;;;26.00;47.90;;;;;;4954373;28;20263;-76
2022/05/07 13:21:35;;;;;;;12.32;11.30;;;26.40;46.30;;;;;;4953361;29;20205;-75
2022/05/07 13:24:01;;;;;;;9.05;8.45;;;26.50;46.00;;;;;;4944368;28;20594;-77
2022/05/07 13:26:27;;;;;;;11.38;10.73;;;26.50;46.40;;;;;;4934403;29;20240;-75
2022/05/07 13:28:53;;;;;;;10.00;9.48;;;26.50;47.00;;;;;;4933964;29;20622;-77
2022/05/07 13:31:19;;;;;;;14.70;13.73;;;26.50;46.60;;;;;;4936814;29;20186;-77
2022/05/07 13:33:45;;;;;;;19.80;18.60;;;26.50;47.80;;;;;;4944084;29;20189;-75
2022/05/07 13:36:13;;;;;;;17.33;16.17;;;26.60;48.60;;;;;;4958002;28;20234;-77
2022/05/07 13:38:39;;;;;;;14.32;13.35;;;27.10;47.90;;;;;;4955364;29;20205;-77
2022/05/07 13:41:05;;;;;;;14.02;13.32;;;27.20;47.40;;;;;;4959355;28;20204;-76
2022/05/07 13:43:30;;;;;;;14.88;14.13;;;26.80;46.80;;;;;;4968519;28;20218;-77
2022/05/07 13:45:56;;;;;;;18.23;17.13;;;26.10;48.90;;;;;;4935454;29;20557;-77
2022/05/07 13:48:23;;;;;;;19.52;18.35;;;25.70;50.40;;;;;;4934771;29;20711;-77
2022/05/07 13:50:50;;;;;;;13.57;12.77;;;25.20;49.10;;;;;;4935056;29;20228;-77
2022/05/07 13:53:18;;;;;;;9.10;8.50;;;24.80;50.20;;;;;;4936296;29;20183;-75
2022/05/07 13:55:44;;;;;;;10.00;9.50;;;24.60;52.20;;;;;;4952990;28;20214;-77
2022/05/07 13:58:10;;;;;;;8.95;8.07;;;24.30;50.60;;;;;;4954083;29;20174;-76
2022/05/07 14:00:36;;;;;;;9.82;9.05;;;24.60;51.20;;;;;;4953169;29;20196;-76
2022/05/07 14:03:03;;;;;;;11.50;10.75;;;25.40;49.20;;;;;;4953026;29;20558;-76
2022/05/07 14:05:29;;;;;;;14.25;13.05;;;26.10;48.70;;;;;;4933672;29;20330;-77
2022/05/07 14:07:55;;;;;;;12.82;11.82;;;26.60;48.70;;;;;;4933281;29;20269;-77
2022/05/07 14:10:21;;;;;;;12.88;12.07;;;27.10;47.50;;;;;;4933477;29;20240;-77
2022/05/07 14:12:46;;;;;;;16.83;15.75;;;27.50;46.50;;;;;;4933444;29;20250;-76
2022/05/07 14:15:13;;;;;;;13.65;12.55;;;27.90;46.10;;;;;;4950521;28;20713;-75
2022/05/07 14:17:38;;;;;;;12.02;11.20;;;28.60;45.10;;;;;;4953411;29;20244;-76
2022/05/07 14:20:06;;;;;;;11.25;10.40;;;28.30;44.10;;;;;;4953492;28;20204;-77
2022/05/07 14:22:32;;;;;;;13.90;12.65;;;27.70;45.00;;;;;;4953906;28;20186;-77
2022/05/07 14:25:00;;;;;;;16.05;14.82;;;27.50;45.20;;;;;;4936946;29;20245;-77
2022/05/07 14:27:25;;;;;;;10.98;10.18;;;27.00;46.90;;;;;;4933024;29;20206;-77
2022/05/07 14:29:51;;;;;;;10.55;9.75;;;26.90;46.90;;;;;;4934661;29;20686;-77
2022/05/07 14:32:17;;;;;;;14.65;13.85;;;26.80;47.30;;;;;;4934310;29;20669;-76
2022/05/07 14:34:43;;;;;;;21.17;19.88;;;26.60;48.00;;;;;;4947311;29;20181;-76
2022/05/07 14:37:09;;;;;;;13.85;12.90;;;25.80;49.10;;;;;;4953078;28;20208;-77
2022/05/07 14:39:35;;;;;;;7.80;7.07;;;24.60;52.10;;;;;;4952210;29;20682;-75
2022/05/07 14:42:02;;;;;;;9.75;6.90;;;23.80;52.90;;;;;;4953389;29;20189;-75
2022/05/07 14:44:28;;;;;;;9.38;7.50;;;22.90;54.60;;;;;;4942260;29;20194;-76
2022/05/07 14:46:53;;;;;;;7.07;6.45;;;22.40;56.50;;;;;;4934280;29;20290;-76
2022/05/07 14:49:21;;;;;;;8.65;7.93;;;22.00;57.20;;;;;;4934055;29;20581;-77
2022/05/07 14:51:47;;;;;;;8.05;7.57;;;21.80;58.00;;;;;;4932880;29;20222;-75
2022/05/07 14:54:13;;;;;;;7.80;7.25;;;21.90;57.70;;;;;;4941495;29;20209;-77
2022/05/07 14:56:38;;;;;;;8.20;7.38;;;22.10;58.10;;;;;;4953106;28;20744;-76
2022/05/07 14:59:04;;;;;;;9.07;8.13;;;22.30;57.50;;;;;;4953046;29;20193;-76
2022/05/07 15:01:30;;;;;;;8.07;7.30;;;22.50;56.10;;;;;;4953027;29;20269;-75
2022/05/07 15:03:56;;;;;;;7.88;7.15;;;22.50;55.80;;;;;;4946640;29;20194;-76
2022/05/07 15:06:21;;;;;;;6.90;6.22;;;22.80;56.20;;;;;;4934187;29;20626;-75
2022/05/07 15:11:32;;;;;;;7.90;7.30;;;24.30;54.40;;;;;;4933990;29;20206;-76
2022/05/07 15:13:59;;;;;;;7.32;6.75;;;24.80;52.70;;;;;;4939759;29;20272;-76
2022/05/07 15:16:27;;;;;;;6.68;6.05;;;25.10;52.40;;;;;;4987154;23;20228;-78
2022/05/07 15:18:54;;;;;;;6.43;5.90;;;25.10;50.70;;;;;;4996771;28;20176;-77
2022/05/07 15:21:20;;;;;;;7.22;6.63;;;24.90;51.30;;;;;;4997271;28;20192;-76
2022/05/07 15:23:46;;;;;;;6.82;6.00;;;24.70;50.30;;;;;;4994713;28;20231;-76
2022/05/07 15:26:17;;;;;;;6.32;5.82;;;24.20;51.50;;;;;;4989138;28;20203;-79
2022/05/07 15:28:43;;;;;;;7.00;6.22;;;24.00;53.70;;;;;;4978410;28;20177;-78
2022/05/07 15:31:13;;;;;;;7.40;6.70;;;24.20;52.90;;;;;;4979848;28;20240;-77
2022/05/07 15:39:09;;;;;;;10.02;7.40;;;24.50;51.00;;;;;;4961183;29;20292;-77
2022/05/07 15:41:35;;;;;;;5.95;5.55;;;24.30;52.40;;;;;;4963561;28;20249;-75
2022/05/07 15:44:01;;;;;;;8.77;8.07;;;24.10;53.40;;;;;;4979191;28;20192;-77
2022/05/07 15:46:27;;;;;;;7.80;7.28;;;24.00;54.60;;;;;;4981710;28;20609;-76
2022/05/07 15:48:53;;;;;;;11.60;10.70;;;23.60;53.60;;;;;;4977563;28;20184;-77
2022/05/07 15:51:20;;;;;;;8.25;7.63;;;23.30;54.20;;;;;;4976757;28;20712;-77
2022/05/07 15:53:46;;;;;;;8.32;7.60;;;23.20;54.70;;;;;;4963197;28;20209;-77
2022/05/07 15:56:12;;;;;;;8.23;7.53;;;23.10;54.90;;;;;;4973798;28;20201;-77
2022/05/07 15:58:38;;;;;;;6.50;6.05;;;23.30;55.00;;;;;;4979118;28;20181;-78
2022/05/07 16:01:06;;;;;;;9.20;8.52;;;23.40;55.60;;;;;;4981668;28;20185;-77
2022/05/07 16:03:32;;;;;;;7.45;6.95;;;24.50;53.70;;;;;;4968940;28;20194;-76
2022/05/07 16:05:58;;;;;;;6.22;5.78;;;25.30;51.40;;;;;;4969000;29;20202;-75
2022/05/07 16:08:24;;;;;;;6.65;6.05;;;26.00;49.90;;;;;;4966514;29;20201;-77
2022/05/07 16:10:50;;;;;;;8.35;7.85;;;26.50;49.60;;;;;;4960108;29;20328;-77
2022/05/07 16:13:16;;;;;;;10.48;9.85;;;27.20;49.00;;;;;;4975038;28;20188;-78
2022/05/07 16:15:43;;;;;;;12.60;11.80;;;27.40;47.10;;;;;;4978243;28;20177;-76
2022/05/07 16:18:09;;;;;;;12.75;11.82;;;27.80;46.50;;;;;;4977538;28;20188;-77